Archival Weather

Republic

Farmingdale, New York (KFRG)

Report from: Saturday, February 17, 2024 1:53 AM EST
Current time: Friday, June 21, 2024 9:08 PM EDT

Current weather – Weather history – Daily summaries
Weather forecast

Present weatherMist
Temperature-1.1°C (30.0°F)
Wind chill-3.8°C (25.1°F)
Dew point-2.8°C (27.0°F)
Winds 4 kts (2.1 m/s, 4.6 mph) East-Northeast (70°)
Visibility1 mi. (1.6 km)
Clouds Ceiling: Vertical visibility 1,100 ft. (335 m)
Altimeter29.86 in.Hg (1011 mB)
Precipitiation0.01 in. (0 mm)
Relative humidity88 %
Density altitude-1,829 ft. (-557 m)
Sea-level pressure101.1 kPa (1011 mB, 29.86 in.Hg)
Remarks Fully automated report
Automated weather observing station without precipitation discriminator
Freezing rain sensor not operating
Flight conditions Instrument Meteorological Conditions
Raw dataKFRG 170653Z AUTO 07004KT 1SM BR VV011 M01/M03 A2986 RMK AO1 SLP113 P0001 T10111028 FZRANO
An error has occurred. This application may no longer respond until reloaded. Reload 🗙